Terminal Aerodrome Forecast
Issued by NWS Melbourne, FL

Home | Current Version | Previous Version | Text Only | Print | Product List | Glossary On
Versions: 1 2 3 4 5 6 7 8 9 10 11 12 13 14 15 16 17 18 19 20 21 22 23
000
FTUS42 KMLB 022332
TAFMLB
TAF
KMLB 022332Z 0300/0324 05008KT P6SM SKC
     FM030200 05004KT 4SM BR BKN004
     FM030500 02003KT 1SM BR BKN003
      TEMPO 0310/0314 1/2SM FG VV002
     FM031500 08008KT P6SM SCT005 SCT020
     FM031700 11011KT P6SM SCT030=

USA.gov is the U.S. government's official web portal to all federal, state and local government web resources and services.